createdAt,value
2017-04-16T00:00:43.277Z,0
2017-04-16T00:01:32.275Z,0
2017-04-16T00:02:26.362Z,0
2017-04-16T00:03:20.362Z,0
2017-04-16T00:04:08.385Z,0
2017-04-16T00:05:08.435Z,0
2017-04-16T00:05:56.492Z,0
2017-04-16T00:06:51.483Z,0
2017-04-16T00:07:45.510Z,0
2017-04-16T00:08:45.595Z,0
2017-04-16T00:09:34.565Z,0
2017-04-16T00:10:23.713Z,0
2017-04-16T00:11:23.633Z,0
2017-04-16T00:12:17.676Z,0
2017-04-16T00:13:12.706Z,0
2017-04-16T00:14:07.791Z,0
2017-04-16T00:15:01.788Z,0
2017-04-16T00:15:56.101Z,0
2017-04-16T00:16:49.827Z,0
2017-04-16T00:17:37.933Z,0
2017-04-16T00:18:26.861Z,0
2017-04-16T00:19:26.986Z,0
2017-04-16T00:20:20.974Z,0
2017-04-16T00:21:16.036Z,0
2017-04-16T00:22:04.989Z,0
2017-04-16T00:22:59.103Z,0
2017-04-16T00:23:54.127Z,0
2017-04-16T00:24:42.176Z,0
2017-04-16T00:25:37.175Z,0
2017-04-16T00:26:37.276Z,0
2017-04-16T00:27:43.295Z,0
2017-04-16T00:28:32.277Z,0
2017-04-16T00:29:26.396Z,0
2017-04-16T00:30:20.320Z,0
2017-04-16T00:31:09.347Z,0
2017-04-16T00:32:03.391Z,0
2017-04-16T00:32:58.424Z,0
2017-04-16T00:33:52.697Z,0
2017-04-16T00:34:41.472Z,0
2017-04-16T00:35:30.512Z,0
2017-04-16T00:36:18.565Z,0
2017-04-16T00:37:12.601Z,0
2017-04-16T00:38:01.640Z,0
2017-04-16T00:38:49.671Z,0
2017-04-16T00:39:43.712Z,0
2017-04-16T00:40:32.715Z,0
2017-04-16T00:41:27.746Z,0
2017-04-16T00:42:27.889Z,0
2017-04-16T00:43:21.813Z,0
2017-04-16T00:44:10.871Z,0
2017-04-16T00:45:06.330Z,0
2017-04-16T00:45:59.886Z,0
2017-04-16T00:46:54.987Z,0
2017-04-16T00:47:48.995Z,0
2017-04-16T00:48:38.009Z,0
2017-04-16T00:49:26.085Z,0
2017-04-16T00:50:20.068Z,0
2017-04-16T00:51:14.146Z,0
2017-04-16T00:52:03.162Z,0
2017-04-16T00:52:52.173Z,0
2017-04-16T00:53:52.220Z,0
2017-04-16T00:54:46.256Z,0
2017-04-16T00:55:40.306Z,0
2017-04-16T00:56:29.314Z,0
2017-04-16T00:57:23.341Z,0
2017-04-16T00:58:17.451Z,0
2017-04-16T00:59:17.413Z,0
2017-04-16T01:00:06.431Z,0
2017-04-16T01:01:00.460Z,0
2017-04-16T01:01:54.483Z,0
2017-04-16T01:02:43.623Z,0
2017-04-16T01:03:32.649Z,0
2017-04-16T01:04:20.620Z,0
2017-04-16T01:05:14.680Z,0
2017-04-16T01:06:15.674Z,0
2017-04-16T01:07:15.743Z,0
2017-04-16T01:08:10.765Z,0
2017-04-16T01:09:05.813Z,0
2017-04-16T01:10:05.804Z,0
2017-04-16T01:11:00.819Z,0
2017-04-16T01:12:00.884Z,0
2017-04-16T01:12:49.896Z,0
2017-04-16T01:13:38.921Z,0
2017-04-16T01:14:27.056Z,0
2017-04-16T01:15:21.994Z,0
2017-04-16T01:16:11.077Z,0
2017-04-16T01:17:06.480Z,0
2017-04-16T01:17:54.075Z,0
2017-04-16T01:18:48.558Z,0
2017-04-16T01:19:37.197Z,0
2017-04-16T01:20:32.159Z,0
2017-04-16T01:21:26.191Z,0
2017-04-16T01:22:15.422Z,0
2017-04-16T01:23:09.287Z,0
2017-04-16T01:23:57.297Z,0
2017-04-16T01:24:57.414Z,0
2017-04-16T01:25:51.367Z,0
2017-04-16T01:26:51.417Z,0
2017-04-16T01:27:40.449Z,0
2017-04-16T01:28:34.507Z,0
2017-04-16T01:29:34.502Z,0
2017-04-16T01:30:22.574Z,0
2017-04-16T01:31:11.634Z,0
2017-04-16T01:32:05.622Z,0
2017-04-16T01:32:54.687Z,0
2017-04-16T01:33:49.689Z,0
2017-04-16T01:34:43.661Z,0
2017-04-16T01:35:32.735Z,0
2017-04-16T01:36:26.766Z,0
2017-04-16T01:37:20.781Z,0
2017-04-16T01:38:14.844Z,0
2017-04-16T01:39:08.871Z,0
2017-04-16T01:40:09.339Z,0
2017-04-16T01:41:02.996Z,0
2017-04-16T01:42:03.007Z,0
2017-04-16T01:42:57.001Z,0
2017-04-16T01:43:46.061Z,0
2017-04-16T01:44:35.093Z,0
2017-04-16T01:45:29.092Z,0
2017-04-16T01:46:24.178Z,0
2017-04-16T01:47:18.156Z,0
2017-04-16T01:48:12.214Z,0
2017-04-16T01:49:07.610Z,0
2017-04-16T01:50:01.278Z,0
2017-04-16T01:50:55.286Z,0
2017-04-16T01:51:44.368Z,0
2017-04-16T01:52:39.362Z,0
2017-04-16T01:53:33.410Z,0
2017-04-16T01:54:33.391Z,0
2017-04-16T01:55:22.485Z,0
2017-04-16T01:56:22.435Z,0
2017-04-16T01:57:10.496Z,0
2017-04-16T01:58:11.535Z,0
2017-04-16T01:59:06.600Z,0
2017-04-16T01:59:55.575Z,0
2017-04-16T02:00:49.645Z,0
2017-04-16T02:01:44.653Z,0
2017-04-16T02:02:39.083Z,0
2017-04-16T02:03:27.722Z,0
2017-04-16T02:04:15.753Z,0
2017-04-16T02:05:09.788Z,0
2017-04-16T02:06:09.816Z,0
2017-04-16T02:07:03.824Z,0
2017-04-16T02:07:51.912Z,0
2017-04-16T02:08:45.899Z,0
2017-04-16T02:09:39.954Z,0
2017-04-16T02:10:33.996Z,0
2017-04-16T02:11:40.182Z,0
2017-04-16T02:12:35.034Z,0
2017-04-16T02:13:29.063Z,0
2017-04-16T02:14:24.142Z,0
2017-04-16T02:15:18.090Z,0
2017-04-16T02:16:07.218Z,0
2017-04-16T02:16:55.189Z,0
2017-04-16T02:17:43.246Z,0
2017-04-16T02:18:38.305Z,0
2017-04-16T02:19:39.299Z,0
2017-04-16T02:20:33.301Z,0
2017-04-16T02:21:28.365Z,0
2017-04-16T02:22:22.459Z,0
2017-04-16T02:23:16.389Z,0
2017-04-16T02:24:11.393Z,0
2017-04-16T02:25:12.437Z,0
2017-04-16T02:26:06.480Z,0
2017-04-16T02:27:00.499Z,0
2017-04-16T02:27:49.562Z,0
2017-04-16T02:28:44.604Z,0
2017-04-16T02:29:38.955Z,0
2017-04-16T02:30:38.648Z,0
2017-04-16T02:31:32.679Z,0
2017-04-16T02:32:21.647Z,0
2017-04-16T02:33:15.724Z,0
2017-04-16T02:34:16.784Z,0
2017-04-16T02:35:05.950Z,0
2017-04-16T02:36:00.808Z,0
2017-04-16T02:37:00.831Z,0
2017-04-16T02:37:55.884Z,0
2017-04-16T02:38:50.883Z,0
2017-04-16T02:39:50.893Z,0
2017-04-16T02:40:45.974Z,0
2017-04-16T02:41:34.013Z,0
2017-04-16T02:42:33.993Z,0
2017-04-16T02:43:34.087Z,0
2017-04-16T02:44:28.080Z,0
2017-04-16T02:45:28.092Z,0
2017-04-16T02:46:22.223Z,0
2017-04-16T02:47:22.119Z,0
2017-04-16T02:48:17.165Z,0
2017-04-16T02:49:17.188Z,0
2017-04-16T02:50:17.197Z,0
2017-04-16T02:51:12.234Z,0
2017-04-16T02:52:12.291Z,0
2017-04-16T02:53:07.296Z,0
2017-04-16T02:54:13.312Z,0
2017-04-16T02:55:08.367Z,0
2017-04-16T02:56:02.452Z,0
2017-04-16T02:57:02.462Z,0
2017-04-16T02:57:57.480Z,0
2017-04-16T02:58:52.752Z,0
2017-04-16T02:59:52.523Z,0
2017-04-16T03:00:52.507Z,0
2017-04-16T03:01:47.562Z,0
2017-04-16T03:02:41.577Z,0
2017-04-16T03:03:41.632Z,0
2017-04-16T03:04:36.639Z,0
2017-04-16T03:05:31.678Z,0
2017-04-16T03:06:32.692Z,0
2017-04-16T03:07:33.688Z,0
2017-04-16T03:08:28.699Z,0
2017-04-16T03:09:28.786Z,0
2017-04-16T03:10:28.820Z,0
2017-04-16T03:11:22.782Z,0
2017-04-16T03:12:17.869Z,0
2017-04-16T03:13:11.931Z,0
2017-04-16T03:14:11.909Z,0
2017-04-16T03:15:11.886Z,0
2017-04-16T03:16:05.951Z,0
2017-04-16T03:17:00.962Z,0
2017-04-16T03:17:55.026Z,0
2017-04-16T03:18:54.991Z,0
2017-04-16T03:19:50.075Z,0
2017-04-16T03:20:38.084Z,0
2017-04-16T03:21:33.077Z,0
2017-04-16T03:22:21.179Z,0
2017-04-16T03:23:15.182Z,0
2017-04-16T03:24:15.184Z,0
2017-04-16T03:25:15.227Z,0
2017-04-16T03:26:09.304Z,0
2017-04-16T03:27:10.019Z,0
2017-04-16T03:27:57.283Z,0
2017-04-16T03:28:45.387Z,0
2017-04-16T03:29:34.399Z,0
2017-04-16T03:30:28.664Z,0
2017-04-16T03:31:17.473Z,0
2017-04-16T03:32:11.989Z,0
2017-04-16T03:33:11.514Z,0
2017-04-16T03:34:05.570Z,0
2017-04-16T03:35:05.594Z,0
2017-04-16T03:36:00.619Z,0
2017-04-16T03:36:50.024Z,0
2017-04-16T03:37:44.649Z,0
2017-04-16T03:38:44.733Z,0
2017-04-16T03:39:33.134Z,0
2017-04-16T03:40:32.744Z,0
2017-04-16T03:41:27.764Z,0
2017-04-16T03:42:21.854Z,0
2017-04-16T03:43:15.886Z,0
2017-04-16T03:44:21.776Z,0
2017-04-16T03:45:16.880Z,0
2017-04-16T03:46:16.916Z,0
2017-04-16T03:47:11.608Z,0
2017-04-16T03:48:05.002Z,0
2017-04-16T03:48:58.991Z,0
2017-04-16T03:49:48.007Z,0
2017-04-16T03:50:48.336Z,0
2017-04-16T03:51:36.119Z,4
2017-04-16T03:52:36.082Z,4
2017-04-16T03:53:30.189Z,4
2017-04-16T03:54:30.189Z,0
2017-04-16T03:55:31.231Z,4
2017-04-16T03:56:31.227Z,4
2017-04-16T03:57:25.203Z,4
2017-04-16T03:58:19.279Z,4
2017-04-16T03:59:08.379Z,4
2017-04-16T04:00:02.320Z,4
2017-04-16T04:00:57.709Z,8
2017-04-16T04:01:52.400Z,8
2017-04-16T04:02:53.420Z,8
2017-04-16T04:03:53.407Z,12
2017-04-16T04:04:48.477Z,12
2017-04-16T04:05:43.964Z,12
2017-04-16T04:06:38.595Z,20
2017-04-16T04:07:27.585Z,20
2017-04-16T04:08:22.606Z,24
2017-04-16T04:09:16.601Z,24
2017-04-16T04:10:17.685Z,32
2017-04-16T04:11:05.763Z,32
2017-04-16T04:12:00.659Z,40
2017-04-16T04:12:49.772Z,44
2017-04-16T04:13:37.828Z,52
2017-04-16T04:14:26.785Z,56
2017-04-16T04:15:14.872Z,68
2017-04-16T04:16:03.953Z,72
2017-04-16T04:16:52.874Z,80
2017-04-16T04:17:41.972Z,92
2017-04-16T04:18:36.034Z,104
2017-04-16T04:19:24.037Z,116
2017-04-16T04:20:12.489Z,132
2017-04-16T04:21:12.101Z,152
2017-04-16T04:22:06.111Z,168
2017-04-16T04:22:55.165Z,188
2017-04-16T04:23:55.167Z,212
2017-04-16T04:24:55.218Z,240
2017-04-16T04:25:55.255Z,272
2017-04-16T04:26:55.403Z,300
2017-04-16T04:27:49.261Z,328
2017-04-16T04:28:43.326Z,364
2017-04-16T04:29:37.307Z,396
2017-04-16T04:30:32.454Z,436
2017-04-16T04:31:32.515Z,480
2017-04-16T04:32:27.501Z,508
2017-04-16T04:33:22.519Z,560
2017-04-16T04:34:16.493Z,600
2017-04-16T04:35:16.480Z,644
2017-04-16T04:36:11.576Z,688
2017-04-16T04:37:11.586Z,732
2017-04-16T04:38:12.618Z,784
2017-04-16T04:39:00.637Z,828
2017-04-16T04:40:00.678Z,876
2017-04-16T04:40:54.674Z,932
2017-04-16T04:41:49.683Z,996
2017-04-16T04:42:50.022Z,1060
2017-04-16T04:43:44.804Z,1144
2017-04-16T04:44:39.779Z,1216
2017-04-16T04:45:33.860Z,1284
2017-04-16T04:46:21.911Z,1344
2017-04-16T04:47:09.897Z,1396
2017-04-16T04:47:58.961Z,1452
2017-04-16T04:48:48.020Z,1516
2017-04-16T04:49:42.004Z,1600
2017-04-16T04:50:37.046Z,1684
2017-04-16T04:51:25.131Z,1736
2017-04-16T04:52:20.105Z,1828
2017-04-16T04:53:21.093Z,1952
2017-04-16T04:54:15.181Z,2048
2017-04-16T04:55:03.209Z,2132
2017-04-16T04:55:52.286Z,2224
2017-04-16T04:56:40.315Z,2332
2017-04-16T04:57:28.521Z,2440
2017-04-16T04:58:16.386Z,2528
2017-04-16T04:59:05.368Z,2624
2017-04-16T05:00:05.417Z,2728
2017-04-16T05:01:05.483Z,2900
2017-04-16T05:02:00.020Z,3012
2017-04-16T05:02:47.502Z,3116
2017-04-16T05:03:41.544Z,3260
2017-04-16T05:04:35.558Z,3416
2017-04-16T05:05:35.692Z,3600
2017-04-16T05:06:29.853Z,3704
2017-04-16T05:07:30.686Z,3836
2017-04-16T05:08:24.701Z,3972
2017-04-16T05:09:18.741Z,4020
2017-04-16T05:10:07.740Z,4124
2017-04-16T05:11:01.857Z,4244
2017-04-16T05:11:56.851Z,4380
2017-04-16T05:12:51.871Z,4428
2017-04-16T05:13:51.911Z,4520
2017-04-16T05:14:46.902Z,4572
2017-04-16T05:15:42.006Z,4688
2017-04-16T05:16:42.074Z,4752
2017-04-16T05:17:48.139Z,4724
2017-04-16T05:18:43.006Z,4692
2017-04-16T05:19:37.091Z,4644
2017-04-16T05:20:32.116Z,4880
2017-04-16T05:21:21.156Z,5016
2017-04-16T05:22:21.490Z,5004
2017-04-16T05:23:21.165Z,5152
2017-04-16T05:24:22.209Z,5320
2017-04-16T05:25:17.286Z,5416
2017-04-16T05:26:11.270Z,5504
2017-04-16T05:27:12.317Z,5736
2017-04-16T05:28:07.419Z,5880
2017-04-16T05:29:07.779Z,6104
2017-04-16T05:29:55.416Z,6224
2017-04-16T05:30:50.419Z,6332
2017-04-16T05:31:44.463Z,6616
2017-04-16T05:32:44.503Z,6556
2017-04-16T05:33:38.611Z,6936
2017-04-16T05:34:38.598Z,7012
2017-04-16T05:35:32.601Z,6932
2017-04-16T05:36:20.657Z,6816
2017-04-16T05:37:20.696Z,6320
2017-04-16T05:38:09.894Z,6472
2017-04-16T05:39:03.781Z,6436
2017-04-16T05:39:58.826Z,6560
2017-04-16T05:40:46.847Z,6596
2017-04-16T05:41:40.882Z,6824
2017-04-16T05:42:41.925Z,6828
2017-04-16T05:43:36.959Z,7004
2017-04-16T05:44:25.935Z,7244
2017-04-16T05:45:14.992Z,7452
2017-04-16T05:46:09.056Z,7900
2017-04-16T05:47:03.350Z,8328
2017-04-16T05:47:57.118Z,8592
2017-04-16T05:48:58.185Z,8932
2017-04-16T05:49:52.175Z,9104
2017-04-16T05:50:41.252Z,8992
2017-04-16T05:51:35.281Z,9000
2017-04-16T05:52:24.326Z,8896
2017-04-16T05:53:13.320Z,9352
2017-04-16T05:54:01.583Z,10092
2017-04-16T05:54:55.565Z,10380
2017-04-16T05:55:49.492Z,10564
2017-04-16T05:56:38.498Z,10524
2017-04-16T05:57:33.497Z,10344
2017-04-16T05:58:27.575Z,10400
2017-04-16T05:59:22.647Z,10288
2017-04-16T06:00:11.689Z,10308
2017-04-16T06:01:05.833Z,10388
2017-04-16T06:01:59.757Z,10056
2017-04-16T06:03:00.126Z,10460
2017-04-16T06:03:48.803Z,11012
2017-04-16T06:04:37.827Z,11096
2017-04-16T06:05:31.878Z,11072
2017-04-16T06:06:20.903Z,11248
2017-04-16T06:07:09.993Z,11668
2017-04-16T06:08:04.003Z,11996
2017-04-16T06:08:58.075Z,12600
2017-04-16T06:09:52.500Z,13556
2017-04-16T06:10:40.189Z,13808
2017-04-16T06:11:35.130Z,13876
2017-04-16T06:12:23.209Z,13884
2017-04-16T06:13:12.275Z,13528
2017-04-16T06:14:01.296Z,13036
2017-04-16T06:14:55.283Z,12764
2017-04-16T06:15:44.396Z,12580
2017-04-16T06:16:33.357Z,12260
2017-04-16T06:17:33.434Z,12856
2017-04-16T06:18:28.489Z,14852
2017-04-16T06:19:16.523Z,15156
2017-04-16T06:20:10.659Z,14196
2017-04-16T06:20:59.657Z,16208
2017-04-16T06:22:57.317Z,17344
2017-04-16T06:23:57.351Z,16736
2017-04-16T06:24:52.424Z,16896
2017-04-16T06:25:41.438Z,16960
2017-04-16T06:26:30.135Z,15900
2017-04-16T06:27:17.476Z,15988
2017-04-16T06:28:05.948Z,18176
2017-04-16T06:28:59.600Z,19936
2017-04-16T06:29:47.671Z,19168
2017-04-16T06:30:47.653Z,19744
2017-04-16T06:31:42.052Z,18240
2017-04-16T06:32:35.763Z,20416
2017-04-16T06:33:24.823Z,20640
2017-04-16T06:34:12.861Z,21248
2017-04-16T06:35:00.903Z,20960
2017-04-16T06:35:54.936Z,18592
2017-04-16T06:36:48.996Z,19328
2017-04-16T06:37:38.011Z,20480
2017-04-16T06:38:32.155Z,22432
2017-04-16T06:39:26.078Z,23488
2017-04-16T06:40:15.170Z,23040
2017-04-16T06:41:04.170Z,22304
2017-04-16T06:41:52.274Z,21664
2017-04-16T06:42:46.279Z,22400
2017-04-16T06:43:34.328Z,23424
2017-04-16T06:44:22.408Z,23328
2017-04-16T06:45:10.893Z,22880
2017-04-16T06:45:58.565Z,23296
2017-04-16T06:46:46.519Z,24480
2017-04-16T06:47:34.563Z,25024
2017-04-16T06:48:35.028Z,25184
2017-04-16T06:49:28.753Z,25376
2017-04-16T06:50:22.754Z,25664
2017-04-16T06:51:11.749Z,26496
2017-04-16T06:52:00.923Z,25952
2017-04-16T06:52:54.783Z,24128
2017-04-16T06:53:43.857Z,23168
2017-04-16T06:54:38.886Z,24128
2017-04-16T06:55:38.945Z,25696
2017-04-16T06:56:33.129Z,27136
2017-04-16T06:57:27.997Z,27072
2017-04-16T06:58:22.084Z,25440
2017-04-16T06:59:16.086Z,24864
2017-04-16T07:00:05.144Z,26848
2017-04-16T07:01:05.478Z,29056
2017-04-16T07:02:11.202Z,31616
2017-04-16T07:03:00.219Z,31776
2017-04-16T07:03:55.380Z,29728
2017-04-16T07:04:43.384Z,25856
2017-04-16T07:05:38.366Z,26624
2017-04-16T07:06:32.920Z,21568
2017-04-16T07:07:20.450Z,26048
2017-04-16T07:08:20.471Z,28704
2017-04-16T07:09:14.618Z,27552
2017-04-16T07:10:08.588Z,29952
2017-04-16T07:11:03.699Z,28576
2017-04-16T07:11:51.709Z,39968
2017-04-16T07:12:46.768Z,21376
2017-04-16T07:13:41.803Z,19136
2017-04-16T07:14:35.929Z,19456
2017-04-16T07:15:29.883Z,21376
2017-04-16T07:16:30.441Z,28736
2017-04-16T07:17:24.952Z,40928
2017-04-16T07:18:19.008Z,25120
2017-04-16T07:19:13.033Z,27744
2017-04-16T07:20:07.143Z,27072
2017-04-16T07:20:56.193Z,38656
2017-04-16T07:21:50.214Z,38624
2017-04-16T07:22:39.386Z,38944
2017-04-16T07:23:33.266Z,39200
2017-04-16T07:24:22.376Z,39456
2017-04-16T07:25:17.409Z,39744
2017-04-16T07:26:06.698Z,44544
2017-04-16T07:26:55.533Z,47232
2017-04-16T07:27:49.539Z,49024
2017-04-16T07:28:38.587Z,51392
2017-04-16T07:29:26.619Z,36576
2017-04-16T07:30:20.707Z,32864
2017-04-16T07:31:21.701Z,42048
2017-04-16T07:32:15.737Z,38240
2017-04-16T07:33:03.826Z,33824
2017-04-16T07:33:52.837Z,50752
2017-04-16T07:34:46.900Z,37344
2017-04-16T07:35:36.010Z,30912
2017-04-16T07:36:31.558Z,30592
2017-04-16T07:37:25.306Z,47776
2017-04-16T07:38:14.086Z,43040
2017-04-16T07:39:08.131Z,32736
2017-04-16T07:40:08.171Z,28224
2017-04-16T07:40:56.314Z,30208
2017-04-16T07:41:50.294Z,36768
2017-04-16T07:42:39.321Z,32192
2017-04-16T07:43:28.333Z,28992
2017-04-16T07:44:17.552Z,28608
2017-04-16T07:45:06.493Z,27968
2017-04-16T07:45:55.610Z,26304
2017-04-16T07:46:44.593Z,26880
2017-04-16T07:47:39.057Z,27968
2017-04-16T07:48:27.657Z,27680
2017-04-16T07:49:22.701Z,24256
2017-04-16T07:50:11.782Z,23744
2017-04-16T07:50:59.777Z,23776
2017-04-16T07:51:48.855Z,24544
2017-04-16T07:52:36.912Z,25888
2017-04-16T07:53:24.961Z,26176
2017-04-16T07:54:13.056Z,25728
2017-04-16T07:55:07.067Z,25440
2017-04-16T07:56:01.106Z,24576
2017-04-16T07:56:50.150Z,23584
2017-04-16T07:57:45.168Z,24128
2017-04-16T07:58:34.203Z,23520
2017-04-16T07:59:34.289Z,21824
2017-04-16T08:00:22.319Z,21344
2017-04-16T08:01:16.525Z,22016
2017-04-16T08:02:10.440Z,23936
2017-04-16T08:02:58.504Z,32736
2017-04-16T08:03:52.512Z,55936
2017-04-16T08:04:41.916Z,31616
2017-04-16T08:05:35.613Z,27840
2017-04-16T08:06:29.606Z,41664
2017-04-16T08:07:17.672Z,28352
2017-04-16T08:08:07.025Z,32608
2017-04-16T08:09:00.790Z,27456
2017-04-16T08:09:48.814Z,29312
2017-04-16T08:10:42.810Z,68672
2017-04-16T08:11:32.578Z,68320
2017-04-16T08:12:19.975Z,58528
2017-04-16T08:13:09.008Z,33696
2017-04-16T08:14:09.056Z,63168
2017-04-16T08:15:09.109Z,51648
2017-04-16T08:15:58.109Z,60928
2017-04-16T08:16:52.225Z,29600
2017-04-16T08:17:46.189Z,23136
2017-04-16T08:18:46.305Z,25248
2017-04-16T08:19:34.317Z,30752
2017-04-16T08:20:28.511Z,53440
2017-04-16T08:21:17.416Z,26624
2017-04-16T08:22:07.016Z,26464
2017-04-16T08:23:00.487Z,59552
2017-04-16T08:23:54.571Z,27808
2017-04-16T08:24:48.630Z,50688
2017-04-16T08:25:37.682Z,25408
2017-04-16T08:26:32.250Z,40704
2017-04-16T08:27:20.736Z,39104
2017-04-16T08:28:09.766Z,34368
2017-04-16T08:28:58.873Z,45248
2017-04-16T08:29:52.887Z,27552
2017-04-16T08:30:52.970Z,34432
2017-04-16T08:31:41.991Z,33024
2017-04-16T08:32:36.013Z,21440
2017-04-16T08:33:25.041Z,24448
2017-04-16T08:34:14.146Z,40768
2017-04-16T08:35:08.193Z,37920
2017-04-16T08:36:03.275Z,37504
2017-04-16T08:36:58.247Z,36352
2017-04-16T08:37:46.498Z,34144
2017-04-16T08:38:40.397Z,22528
2017-04-16T08:39:34.406Z,24128
2017-04-16T08:40:23.495Z,46464
2017-04-16T08:41:17.540Z,61760
2017-04-16T08:42:11.574Z,59200
2017-04-16T08:43:06.599Z,37696
2017-04-16T08:44:00.671Z,25728
2017-04-16T08:44:49.686Z,27424
2017-04-16T08:45:38.946Z,41472
2017-04-16T08:46:26.787Z,42656
2017-04-16T08:47:15.827Z,44960
2017-04-16T08:48:03.860Z,48544
2017-04-16T08:48:57.948Z,26752
2017-04-16T08:49:52.993Z,52512
2017-04-16T08:50:47.022Z,69312
2017-04-16T08:51:41.336Z,69536
2017-04-16T08:52:35.105Z,68064
2017-04-16T08:53:29.152Z,26176
2017-04-16T08:54:23.171Z,21728
2017-04-16T08:55:23.238Z,67680
2017-04-16T08:56:23.294Z,65792
2017-04-16T08:57:17.412Z,64768
2017-04-16T08:58:11.843Z,61504
2017-04-16T08:59:00.444Z,50560
2017-04-16T08:59:55.530Z,50624
2017-04-16T09:00:55.499Z,54432
2017-04-16T09:01:50.089Z,59456
2017-04-16T09:02:37.669Z,37792
2017-04-16T09:03:32.659Z,50560
2017-04-16T09:04:27.708Z,54976
2017-04-16T09:05:16.754Z,57120
2017-04-16T09:06:11.822Z,33024
2017-04-16T09:07:00.858Z,41536
2017-04-16T09:07:48.978Z,30272
2017-04-16T09:08:43.009Z,45984
2017-04-16T09:09:31.446Z,43776
2017-04-16T09:10:19.102Z,45632
2017-04-16T09:11:08.157Z,47904
2017-04-16T09:12:02.221Z,51744
2017-04-16T09:12:51.412Z,49600
2017-04-16T09:13:39.319Z,45344
2017-04-16T09:14:28.315Z,48992
2017-04-16T09:15:23.379Z,52288
2017-04-16T09:16:18.761Z,51904
2017-04-16T09:17:12.508Z,50624
2017-04-16T09:18:12.576Z,57792
2017-04-16T09:19:12.611Z,28224
2017-04-16T09:20:01.622Z,60160
2017-04-16T09:21:01.708Z,60032
2017-04-16T09:21:55.930Z,56032
2017-04-16T09:22:50.773Z,51616
2017-04-16T09:23:50.882Z,55008
2017-04-16T09:24:38.874Z,57632
2017-04-16T09:25:33.913Z,56832
2017-04-16T09:26:28.107Z,60224
2017-04-16T09:27:16.032Z,63392
2017-04-16T09:28:10.091Z,67520
2017-04-16T09:29:04.128Z,65344
2017-04-16T09:29:58.198Z,64256
2017-04-16T09:30:47.245Z,71840
2017-04-16T09:31:41.226Z,26240
2017-04-16T09:32:41.318Z,26208
2017-04-16T09:33:35.410Z,68224
2017-04-16T09:34:24.031Z,66880
2017-04-16T09:35:23.502Z,59648
2017-04-16T09:36:17.514Z,58240
2017-04-16T09:37:11.557Z,62784
2017-04-16T09:37:59.633Z,24544
2017-04-16T09:38:48.701Z,26784
2017-04-16T09:39:43.760Z,75200
2017-04-16T09:40:37.819Z,31264
2017-04-16T09:41:25.851Z,40320
2017-04-16T09:42:20.276Z,32768
2017-04-16T09:43:14.002Z,76576
2017-04-16T09:44:03.003Z,75968
2017-04-16T09:44:57.065Z,32672
2017-04-16T09:45:46.124Z,73440
2017-04-16T09:46:46.208Z,75328
2017-04-16T09:47:41.179Z,23296
2017-04-16T09:48:30.252Z,19616
2017-04-16T09:49:24.346Z,17920
2017-04-16T09:50:18.364Z,18528
2017-04-16T09:51:12.489Z,20960
2017-04-16T09:52:07.504Z,23232
2017-04-16T09:53:07.508Z,24896
2017-04-16T09:54:01.593Z,26368
2017-04-16T09:54:50.599Z,26240
2017-04-16T09:55:45.704Z,26464
2017-04-16T09:56:34.268Z,44000
2017-04-16T09:57:22.765Z,26688
2017-04-16T09:58:11.794Z,28896
2017-04-16T09:59:05.866Z,83264
2017-04-16T10:00:00.893Z,30464
2017-04-16T10:00:55.990Z,36608
2017-04-16T10:01:51.332Z,69504
2017-04-16T10:02:46.074Z,31936
2017-04-16T10:03:34.088Z,32320
2017-04-16T10:04:29.180Z,26144
2017-04-16T10:05:18.180Z,27648
2017-04-16T10:06:18.299Z,28352
2017-04-16T10:07:13.382Z,26400
2017-04-16T10:08:07.375Z,23040
2017-04-16T10:09:02.400Z,38720
2017-04-16T10:09:50.999Z,21408
2017-04-16T10:10:44.455Z,23360
2017-04-16T10:11:44.780Z,26624
2017-04-16T10:12:44.606Z,28992
2017-04-16T10:13:38.627Z,34784
2017-04-16T10:14:33.709Z,33728
2017-04-16T10:15:27.701Z,61312
2017-04-16T10:16:15.980Z,57440
2017-04-16T10:17:10.939Z,37728
2017-04-16T10:18:04.871Z,77824
2017-04-16T10:18:52.885Z,45984
2017-04-16T10:19:46.948Z,28832
2017-04-16T10:20:40.970Z,27488
2017-04-16T10:21:35.587Z,28640
2017-04-16T10:22:30.480Z,29600
2017-04-16T10:23:24.236Z,29248
2017-04-16T10:24:13.525Z,74432
2017-04-16T10:25:07.294Z,72128
2017-04-16T10:26:01.290Z,83168
2017-04-16T10:26:56.395Z,40992
2017-04-16T10:27:44.486Z,69280
2017-04-16T10:28:39.497Z,69152
2017-04-16T10:29:27.490Z,68576
2017-04-16T10:30:15.562Z,70016
2017-04-16T10:31:09.543Z,71616
2017-04-16T10:32:03.807Z,71680
2017-04-16T10:33:04.726Z,81024
2017-04-16T10:33:53.775Z,33504
2017-04-16T10:34:47.754Z,34112
2017-04-16T10:35:42.858Z,94464
2017-04-16T10:36:37.772Z,82816
2017-04-16T10:37:30.995Z,69696
2017-04-16T10:38:26.018Z,86976
2017-04-16T10:39:20.057Z,34496
2017-04-16T10:40:09.064Z,72096
2017-04-16T10:40:58.183Z,27424
2017-04-16T10:41:47.189Z,25120
2017-04-16T10:42:36.233Z,23552
2017-04-16T10:43:36.369Z,22560
2017-04-16T10:44:31.585Z,22688
2017-04-16T10:45:20.390Z,23648
2017-04-16T10:46:15.468Z,26336
2017-04-16T10:47:09.464Z,29312
2017-04-16T10:48:04.545Z,33568
2017-04-16T10:48:53.921Z,66624
2017-04-16T10:49:48.830Z,35424
2017-04-16T10:50:37.728Z,80192
2017-04-16T10:51:26.803Z,79328
2017-04-16T10:52:26.802Z,71520
2017-04-16T10:53:21.862Z,32832
2017-04-16T10:54:09.949Z,73536
2017-04-16T10:54:58.959Z,58464
2017-04-16T10:55:54.015Z,46432
2017-04-16T10:56:48.074Z,35840
2017-04-16T10:57:42.159Z,72448
2017-04-16T10:58:36.147Z,42080
2017-04-16T10:59:25.285Z,44128
2017-04-16T11:00:19.314Z,40992
2017-04-16T11:01:14.310Z,24512
2017-04-16T11:02:09.357Z,22016
2017-04-16T11:03:03.402Z,27808
2017-04-16T11:03:57.477Z,68704
2017-04-16T11:04:57.493Z,80352
2017-04-16T11:05:45.593Z,10656
2017-04-16T11:06:39.724Z,82752
2017-04-16T11:07:40.674Z,85824
2017-04-16T11:08:29.734Z,86752
2017-04-16T11:09:19.058Z,86496
2017-04-16T11:10:07.864Z,75456
2017-04-16T11:10:55.926Z,70144
2017-04-16T11:11:55.947Z,72480
2017-04-16T11:12:50.008Z,75392
2017-04-16T11:13:39.086Z,70976
2017-04-16T11:14:33.111Z,81856
2017-04-16T11:15:22.197Z,88352
2017-04-16T11:16:11.184Z,82112
2017-04-16T11:17:06.250Z,47904
2017-04-16T11:18:01.292Z,40000
2017-04-16T11:18:50.381Z,38752
2017-04-16T11:19:44.381Z,27904
2017-04-16T11:20:38.501Z,25056
2017-04-16T11:21:40.258Z,24608
2017-04-16T11:22:27.604Z,23456
2017-04-16T11:23:27.673Z,22720
2017-04-16T11:24:22.683Z,22336
2017-04-16T11:25:11.867Z,22208
2017-04-16T11:26:06.792Z,22944
2017-04-16T11:26:55.853Z,24224
2017-04-16T11:27:50.927Z,26080
2017-04-16T11:28:39.970Z,27744
2017-04-16T11:29:34.387Z,28800
2017-04-16T11:30:28.103Z,29344
2017-04-16T11:31:23.174Z,29632
2017-04-16T11:32:23.165Z,29792
2017-04-16T11:33:11.207Z,30112
2017-04-16T11:34:00.251Z,31232
2017-04-16T11:34:54.336Z,32224
2017-04-16T11:35:49.365Z,33664
2017-04-16T11:36:44.369Z,36000
2017-04-16T11:37:39.505Z,40352
2017-04-16T11:38:33.523Z,44192
2017-04-16T11:39:33.582Z,51040
2017-04-16T11:40:27.607Z,102464
2017-04-16T11:41:16.670Z,60704
2017-04-16T11:42:05.894Z,62144
2017-04-16T11:42:53.764Z,58240
2017-04-16T11:43:47.806Z,88800
2017-04-16T11:44:47.789Z,75392
2017-04-16T11:45:36.901Z,53056
2017-04-16T11:46:37.583Z,81920
2017-04-16T11:47:31.073Z,46656
2017-04-16T11:48:25.092Z,53632
2017-04-16T11:49:13.125Z,62080
2017-04-16T11:50:08.193Z,66816
2017-04-16T11:51:02.206Z,63040
2017-04-16T11:51:51.284Z,106592
2017-04-16T11:52:45.339Z,93728
2017-04-16T11:53:45.403Z,46688
2017-04-16T11:54:33.403Z,78464
2017-04-16T11:55:27.501Z,83872
2017-04-16T11:56:21.525Z,86496
2017-04-16T11:57:16.620Z,75040
2017-04-16T11:58:10.702Z,55520
2017-04-16T11:59:04.698Z,74752
2017-04-16T11:59:59.742Z,87584
2017-04-16T12:00:59.782Z,22688
2017-04-16T12:01:48.841Z,91296
2017-04-16T12:02:42.885Z,87008
2017-04-16T12:03:31.202Z,85024
2017-04-16T12:04:20.029Z,81472
2017-04-16T12:05:14.057Z,51040
2017-04-16T12:06:08.107Z,33952
2017-04-16T12:06:57.260Z,30304